createdAt,value
2022-11-27T00:00:36.957Z,11.40
2022-11-27T00:01:41.226Z,11.40
2022-11-27T00:02:44.376Z,11.40
2022-11-27T00:03:47.210Z,11.40
2022-11-27T00:04:50.542Z,11.40
2022-11-27T00:05:55.327Z,11.40
2022-11-27T00:06:58.460Z,11.50
2022-11-27T00:08:01.623Z,11.50
2022-11-27T00:09:06.730Z,11.50
2022-11-27T00:10:10.893Z,11.40
2022-11-27T00:11:18.323Z,11.40
2022-11-27T00:12:22.799Z,11.30
2022-11-27T00:13:24.950Z,11.20
2022-11-27T00:14:28.076Z,11.30
2022-11-27T00:15:30.228Z,11.30
2022-11-27T00:16:33.679Z,11.20
2022-11-27T00:17:35.886Z,11.20
2022-11-27T00:18:39.270Z,11.20
2022-11-27T00:19:41.528Z,11.20
2022-11-27T00:20:44.793Z,11.30
2022-11-27T00:21:46.983Z,11.20
2022-11-27T00:22:50.098Z,11.20
2022-11-27T00:23:53.993Z,11.20
2022-11-27T00:24:57.067Z,11.20
2022-11-27T00:25:59.249Z,11.20
2022-11-27T00:27:02.401Z,11.20
2022-11-27T00:28:05.929Z,11.30
2022-11-27T00:29:09.202Z,11.30
2022-11-27T00:30:12.620Z,11.30
2022-11-27T00:31:18.794Z,11.30
2022-11-27T00:32:20.962Z,11.40
2022-11-27T00:33:24.059Z,11.40
2022-11-27T00:34:26.514Z,11.40
2022-11-27T00:35:29.666Z,11.40
2022-11-27T00:36:33.896Z,11.40
2022-11-27T00:37:37.232Z,11.40
2022-11-27T00:38:39.659Z,11.50
2022-11-27T00:39:42.751Z,11.50
2022-11-27T00:40:45.028Z,11.50
2022-11-27T00:41:48.207Z,11.50
2022-11-27T00:42:50.321Z,11.50
2022-11-27T00:43:55.713Z,11.50
2022-11-27T00:44:57.857Z,11.50
2022-11-27T00:46:00.984Z,11.50
2022-11-27T00:47:03.200Z,11.50
2022-11-27T00:48:07.075Z,11.50
2022-11-27T00:49:13.298Z,11.50
2022-11-27T00:50:16.244Z,11.50
2022-11-27T00:51:21.692Z,11.50
2022-11-27T00:52:23.783Z,11.50
2022-11-27T00:53:26.911Z,11.50
2022-11-27T00:54:30.000Z,11.50
2022-11-27T00:55:32.070Z,11.50
2022-11-27T00:56:37.933Z,11.50
2022-11-27T00:57:40.047Z,11.50
2022-11-27T00:58:43.215Z,11.60
2022-11-27T00:59:47.693Z,11.60
2022-11-27T01:00:55.437Z,11.60
2022-11-27T01:01:58.572Z,11.50
2022-11-27T01:03:00.831Z,11.60
2022-11-27T01:04:06.272Z,11.50
2022-11-27T01:05:08.954Z,11.60
2022-11-27T01:06:12.454Z,11.60
2022-11-27T01:07:15.764Z,11.60
2022-11-27T01:08:19.273Z,11.60
2022-11-27T01:09:22.357Z,11.60
2022-11-27T01:10:24.543Z,11.50
2022-11-27T01:11:29.550Z,11.60
2022-11-27T01:12:31.671Z,11.50
2022-11-27T01:13:38.166Z,11.50
2022-11-27T01:14:40.743Z,11.50
2022-11-27T01:15:45.702Z,11.50
2022-11-27T01:16:47.876Z,11.50
2022-11-27T01:17:51.017Z,11.50
2022-11-27T01:18:56.124Z,11.50
2022-11-27T01:19:59.319Z,11.50
2022-11-27T01:21:02.293Z,11.50
2022-11-27T01:22:05.408Z,11.50
2022-11-27T01:23:08.037Z,11.50
2022-11-27T01:24:12.987Z,11.40
2022-11-27T01:25:15.113Z,11.40
2022-11-27T01:26:19.923Z,11.40
2022-11-27T01:27:21.994Z,11.40
2022-11-27T01:28:25.992Z,11.40
2022-11-27T01:29:29.124Z,11.40
2022-11-27T01:30:31.472Z,11.40
2022-11-27T01:31:36.699Z,11.40
2022-11-27T01:32:38.903Z,11.30
2022-11-27T01:33:42.319Z,11.30
2022-11-27T01:34:45.392Z,11.40
2022-11-27T01:35:55.057Z,11.30
2022-11-27T01:36:58.166Z,11.30
2022-11-27T01:38:00.601Z,11.30
2022-11-27T01:39:05.197Z,11.30
2022-11-27T01:40:08.876Z,11.30
2022-11-27T01:41:16.372Z,11.20
2022-11-27T01:42:19.454Z,11.20
2022-11-27T01:43:38.412Z,11.20
2022-11-27T01:44:51.367Z,11.20
2022-11-27T01:45:53.524Z,11.20
2022-11-27T01:47:01.444Z,11.10
2022-11-27T01:48:04.353Z,11.10
2022-11-27T01:49:25.734Z,11.10
2022-11-27T01:50:34.399Z,11.10
2022-11-27T01:51:41.404Z,11.00
2022-11-27T01:52:51.930Z,11.00
2022-11-27T01:53:55.960Z,11.00
2022-11-27T01:55:05.796Z,11.00
2022-11-27T01:56:09.620Z,11.00
2022-11-27T01:57:18.044Z,11.00
2022-11-27T01:58:29.861Z,11.00
2022-11-27T01:59:32.266Z,11.00
2022-11-27T02:00:35.465Z,11.00
2022-11-27T02:01:38.074Z,10.90
2022-11-27T02:02:43.798Z,10.90
2022-11-27T02:03:46.158Z,10.90
2022-11-27T02:04:49.360Z,10.90
2022-11-27T02:05:51.469Z,10.90
2022-11-27T02:06:58.498Z,10.90
2022-11-27T02:08:06.121Z,10.90
2022-11-27T02:09:09.391Z,10.90
2022-11-27T02:10:12.511Z,10.90
2022-11-27T02:11:22.106Z,10.80
2022-11-27T02:12:27.320Z,10.80
2022-11-27T02:13:40.704Z,10.80
2022-11-27T02:14:55.082Z,10.80
2022-11-27T02:16:09.665Z,10.80
2022-11-27T02:17:22.127Z,10.70
2022-11-27T02:18:36.879Z,10.70
2022-11-27T02:20:03.625Z,10.70
2022-11-27T02:21:19.514Z,10.80
2022-11-27T02:22:39.428Z,10.80
2022-11-27T02:24:10.404Z,10.80
2022-11-27T02:25:28.766Z,10.80
2022-11-27T02:27:02.097Z,10.80
2022-11-27T02:28:25.539Z,10.70
2022-11-27T02:29:33.120Z,10.70
2022-11-27T02:30:42.528Z,10.70
2022-11-27T02:31:52.013Z,10.70
2022-11-27T02:33:00.414Z,10.70
2022-11-27T02:34:13.028Z,10.60
2022-11-27T02:35:21.020Z,10.60
2022-11-27T02:36:30.432Z,10.60
2022-11-27T02:37:41.037Z,10.60
2022-11-27T02:38:49.352Z,10.50
2022-11-27T02:40:00.987Z,10.50
2022-11-27T02:41:12.722Z,10.50
2022-11-27T02:42:22.041Z,10.50
2022-11-27T02:43:30.995Z,10.50
2022-11-27T02:44:42.065Z,10.50
2022-11-27T02:45:47.649Z,10.40
2022-11-27T02:46:51.866Z,10.40
2022-11-27T02:47:57.883Z,10.40
2022-11-27T02:49:07.589Z,10.40
2022-11-27T02:50:15.420Z,10.40
2022-11-27T02:51:24.719Z,10.40
2022-11-27T02:52:30.056Z,10.40
2022-11-27T02:53:39.298Z,10.40
2022-11-27T02:54:43.734Z,10.40
2022-11-27T02:55:49.571Z,10.40
2022-11-27T02:56:54.428Z,10.40
2022-11-27T02:58:00.845Z,10.40
2022-11-27T02:59:08.169Z,10.40
2022-11-27T03:00:14.883Z,10.40
2022-11-27T03:01:23.365Z,10.50
2022-11-27T03:02:33.964Z,10.50
2022-11-27T03:03:43.106Z,10.50
2022-11-27T03:04:50.667Z,10.50
2022-11-27T03:05:58.041Z,10.50
2022-11-27T03:07:05.244Z,10.50
2022-11-27T03:08:12.629Z,10.50
2022-11-27T03:09:19.988Z,10.60
2022-11-27T03:10:31.193Z,10.60
2022-11-27T03:11:34.080Z,10.60
2022-11-27T03:12:38.051Z,10.70
2022-11-27T03:13:44.931Z,10.70
2022-11-27T03:14:50.239Z,10.70
2022-11-27T03:16:05.412Z,10.70
2022-11-27T03:17:27.672Z,10.70
2022-11-27T03:18:40.223Z,10.70
2022-11-27T03:19:50.516Z,10.70
2022-11-27T03:21:07.468Z,10.70
2022-11-27T03:22:10.815Z,10.70
2022-11-27T03:23:13.948Z,10.70
2022-11-27T03:24:16.340Z,10.70
2022-11-27T03:25:19.505Z,10.70
2022-11-27T03:26:21.784Z,10.60
2022-11-27T03:27:32.961Z,10.60
2022-11-27T03:28:37.122Z,10.50
2022-11-27T03:29:45.651Z,10.50
2022-11-27T03:30:48.897Z,10.50
2022-11-27T03:31:52.757Z,10.40
2022-11-27T03:32:56.769Z,10.40
2022-11-27T03:33:59.188Z,10.40
2022-11-27T03:35:03.177Z,10.40
2022-11-27T03:36:12.617Z,10.40
2022-11-27T03:37:16.650Z,10.30
2022-11-27T03:38:18.915Z,10.30
2022-11-27T03:39:23.577Z,10.30
2022-11-27T03:40:37.506Z,10.30
2022-11-27T03:41:51.774Z,10.30
2022-11-27T03:43:04.739Z,10.30
2022-11-27T03:44:18.425Z,10.30
2022-11-27T03:45:33.262Z,10.30
2022-11-27T03:46:44.454Z,10.40
2022-11-27T03:48:00.631Z,10.40
2022-11-27T03:49:13.946Z,10.40
2022-11-27T03:50:29.517Z,10.40
2022-11-27T03:51:48.280Z,10.40
2022-11-27T03:53:00.884Z,10.30
2022-11-27T03:54:12.779Z,10.30
2022-11-27T03:55:23.561Z,10.20
2022-11-27T03:56:38.827Z,10.20
2022-11-27T03:57:51.083Z,10.20
2022-11-27T03:58:59.304Z,10.20
2022-11-27T04:00:06.222Z,10.30
2022-11-27T04:01:13.453Z,10.30
2022-11-27T04:02:18.797Z,10.30
2022-11-27T04:03:28.218Z,10.30
2022-11-27T04:04:30.400Z,10.30
2022-11-27T04:05:33.471Z,10.30
2022-11-27T04:06:35.725Z,10.30
2022-11-27T04:07:38.886Z,10.20
2022-11-27T04:08:41.835Z,10.20
2022-11-27T04:09:44.904Z,10.20
2022-11-27T04:10:47.676Z,10.10
2022-11-27T04:11:50.749Z,10.20
2022-11-27T04:12:52.821Z,10.20
2022-11-27T04:13:55.933Z,10.20
2022-11-27T04:14:58.379Z,10.20
2022-11-27T04:16:02.342Z,10.20
2022-11-27T04:17:04.676Z,10.20
2022-11-27T04:18:08.277Z,10.10
2022-11-27T04:19:11.725Z,10.10
2022-11-27T04:20:16.634Z,10.10
2022-11-27T04:21:18.948Z,10.10
2022-11-27T04:22:22.257Z,10.10
2022-11-27T04:23:25.398Z,10.20
2022-11-27T04:24:27.506Z,10.20
2022-11-27T04:25:31.016Z,10.30
2022-11-27T04:26:33.114Z,10.30
2022-11-27T04:27:36.162Z,10.30
2022-11-27T04:28:38.316Z,10.30
2022-11-27T04:29:41.444Z,10.30
2022-11-27T04:30:43.728Z,10.40
2022-11-27T04:31:46.910Z,10.40
2022-11-27T04:32:49.063Z,10.40
2022-11-27T04:33:52.214Z,10.40
2022-11-27T04:34:55.744Z,10.50
2022-11-27T04:35:58.813Z,10.50
2022-11-27T04:37:01.635Z,10.60
2022-11-27T04:38:04.763Z,10.60
2022-11-27T04:39:07.273Z,10.60
2022-11-27T04:40:11.356Z,10.60
2022-11-27T04:41:13.518Z,10.60
2022-11-27T04:42:16.674Z,10.70
2022-11-27T04:43:18.872Z,10.70
2022-11-27T04:44:22.890Z,10.70
2022-11-27T04:45:25.211Z,10.70
2022-11-27T04:46:28.387Z,10.70
2022-11-27T04:47:30.569Z,10.70
2022-11-27T04:48:33.704Z,10.70
2022-11-27T04:49:35.866Z,10.70
2022-11-27T04:50:40.580Z,10.70
2022-11-27T04:51:42.771Z,10.70
2022-11-27T04:52:45.906Z,10.70
2022-11-27T04:53:47.987Z,10.70
2022-11-27T04:54:54.251Z,10.70
2022-11-27T04:56:00.547Z,10.70
2022-11-27T04:57:03.991Z,10.70
2022-11-27T04:58:06.300Z,10.80
2022-11-27T04:59:09.443Z,10.80
2022-11-27T05:00:12.680Z,10.80
2022-11-27T05:01:15.882Z,10.80
2022-11-27T05:02:18.026Z,10.80
2022-11-27T05:03:21.252Z,10.70
2022-11-27T05:04:23.586Z,10.80
2022-11-27T05:05:26.716Z,10.70
2022-11-27T05:06:30.178Z,10.70
2022-11-27T05:07:33.366Z,10.70
2022-11-27T05:08:35.521Z,10.70
2022-11-27T05:09:38.596Z,10.80
2022-11-27T05:10:40.679Z,10.80
2022-11-27T05:11:43.848Z,10.80
2022-11-27T05:12:45.950Z,10.80
2022-11-27T05:13:49.111Z,10.80
2022-11-27T05:14:52.362Z,10.80
2022-11-27T05:15:55.660Z,10.80
2022-11-27T05:16:59.587Z,10.90
2022-11-27T05:18:02.668Z,10.90
2022-11-27T05:19:04.911Z,10.90
2022-11-27T05:20:09.251Z,10.80
2022-11-27T05:21:11.352Z,10.80
2022-11-27T05:22:15.857Z,10.80
2022-11-27T05:23:18.094Z,10.70
2022-11-27T05:24:22.700Z,10.70
2022-11-27T05:25:24.825Z,10.70
2022-11-27T05:26:27.972Z,10.60
2022-11-27T05:27:31.102Z,10.60
2022-11-27T05:28:33.261Z,10.60
2022-11-27T05:29:36.346Z,10.50
2022-11-27T05:30:38.424Z,10.40
2022-11-27T05:31:42.891Z,10.40
2022-11-27T05:32:45.089Z,10.40
2022-11-27T05:33:48.179Z,10.40
2022-11-27T05:34:51.286Z,10.40
2022-11-27T05:35:53.439Z,10.40
2022-11-27T05:36:56.521Z,10.40
2022-11-27T05:37:59.987Z,10.50
2022-11-27T05:39:05.492Z,10.50
2022-11-27T05:40:08.602Z,10.50
2022-11-27T05:41:11.849Z,10.50
2022-11-27T05:42:15.215Z,10.60
2022-11-27T05:43:17.308Z,10.60
2022-11-27T05:44:20.449Z,10.60
2022-11-27T05:45:22.604Z,10.60
2022-11-27T05:46:25.691Z,10.70
2022-11-27T05:47:28.788Z,10.70
2022-11-27T05:48:30.882Z,10.80
2022-11-27T05:49:34.038Z,10.80
2022-11-27T05:50:36.630Z,10.80
2022-11-27T05:51:39.787Z,10.90
2022-11-27T05:52:42.901Z,10.90
2022-11-27T05:53:46.547Z,10.90
2022-11-27T05:54:49.645Z,11.00
2022-11-27T05:55:51.832Z,11.00
2022-11-27T05:56:54.967Z,11.00
2022-11-27T05:57:57.096Z,11.00
2022-11-27T05:59:00.378Z,11.00
2022-11-27T06:00:02.520Z,11.00
2022-11-27T06:01:05.920Z,11.00
2022-11-27T06:02:08.151Z,11.00
2022-11-27T06:03:11.310Z,11.00
2022-11-27T06:04:13.843Z,11.00
2022-11-27T06:05:17.053Z,11.00
2022-11-27T06:06:21.019Z,11.00
2022-11-27T06:07:24.170Z,11.00
2022-11-27T06:08:26.409Z,11.00
2022-11-27T06:09:30.940Z,11.00
2022-11-27T06:10:33.880Z,11.00
2022-11-27T06:11:37.003Z,11.00
2022-11-27T06:12:39.146Z,11.00
2022-11-27T06:13:42.495Z,11.00
2022-11-27T06:14:44.635Z,11.00
2022-11-27T06:15:47.747Z,10.90
2022-11-27T06:16:50.966Z,10.90
2022-11-27T06:17:53.112Z,10.90
2022-11-27T06:18:57.510Z,10.90
2022-11-27T06:19:59.655Z,10.80
2022-11-27T06:21:06.643Z,10.80
2022-11-27T06:22:09.959Z,10.80
2022-11-27T06:23:12.028Z,10.80
2022-11-27T06:24:15.104Z,10.80
2022-11-27T06:25:18.857Z,10.80
2022-11-27T06:26:25.723Z,10.70
2022-11-27T06:27:32.859Z,10.70
2022-11-27T06:28:36.017Z,10.70
2022-11-27T06:29:39.326Z,10.70
2022-11-27T06:30:41.450Z,10.70
2022-11-27T06:31:44.557Z,10.70
2022-11-27T06:32:46.746Z,10.60
2022-11-27T06:33:51.871Z,10.60
2022-11-27T06:34:55.013Z,10.60
2022-11-27T06:35:57.117Z,10.60
2022-11-27T06:37:00.196Z,10.60
2022-11-27T06:38:02.254Z,10.60
2022-11-27T06:39:07.716Z,10.60
2022-11-27T06:40:10.576Z,10.60
2022-11-27T06:41:17.363Z,10.60
2022-11-27T06:42:19.584Z,10.70
2022-11-27T06:43:22.696Z,10.70
2022-11-27T06:44:25.960Z,10.70
2022-11-27T06:45:28.111Z,10.80
2022-11-27T06:46:31.677Z,10.80
2022-11-27T06:47:33.793Z,10.80
2022-11-27T06:48:36.950Z,10.80
2022-11-27T06:49:39.179Z,10.80
2022-11-27T06:50:42.321Z,10.80
2022-11-27T06:51:44.457Z,10.80
2022-11-27T06:52:47.593Z,10.80
2022-11-27T06:53:51.115Z,10.80
2022-11-27T06:54:54.235Z,10.80
2022-11-27T06:55:56.452Z,10.80
2022-11-27T06:57:01.005Z,10.80
2022-11-27T06:58:03.161Z,10.70
2022-11-27T06:59:06.297Z,10.80
2022-11-27T07:00:09.599Z,10.70
2022-11-27T07:01:16.062Z,10.70
2022-11-27T07:02:18.305Z,10.70
2022-11-27T07:03:21.463Z,10.70
2022-11-27T07:04:24.631Z,10.70
2022-11-27T07:05:26.852Z,10.60
2022-11-27T07:06:30.142Z,10.60
2022-11-27T07:07:32.372Z,10.60
2022-11-27T07:08:37.024Z,10.50
2022-11-27T07:09:39.204Z,10.50
2022-11-27T07:10:42.279Z,10.50
2022-11-27T07:11:44.456Z,10.50
2022-11-27T07:12:48.911Z,10.40
2022-11-27T07:13:52.278Z,10.40
2022-11-27T07:14:55.382Z,10.40
2022-11-27T07:16:01.946Z,10.40
2022-11-27T07:17:04.137Z,10.40
2022-11-27T07:18:07.285Z,10.30
2022-11-27T07:19:11.359Z,10.30
2022-11-27T07:20:13.937Z,10.30
2022-11-27T07:21:17.968Z,10.20
2022-11-27T07:22:21.085Z,10.20
2022-11-27T07:23:23.402Z,10.20
2022-11-27T07:24:26.492Z,10.20
2022-11-27T07:25:28.710Z,10.10
2022-11-27T07:26:32.334Z,10.10
2022-11-27T07:27:34.483Z,10.10
2022-11-27T07:28:39.057Z,10.10
2022-11-27T07:29:41.127Z,10.10
2022-11-27T07:30:44.364Z,10.00
2022-11-27T07:31:46.587Z,10.00
2022-11-27T07:32:49.712Z,10.00
2022-11-27T07:33:52.630Z,10.00
2022-11-27T07:34:55.718Z,10.00
2022-11-27T07:35:59.491Z,10.00
2022-11-27T07:37:02.578Z,9.90
2022-11-27T07:38:05.684Z,9.90
2022-11-27T07:39:07.833Z,9.90
2022-11-27T07:40:11.125Z,9.90
2022-11-27T07:41:14.168Z,9.90
2022-11-27T07:42:37.591Z,9.90
2022-11-27T07:43:43.712Z,9.90
2022-11-27T07:44:46.828Z,9.90
2022-11-27T07:45:48.988Z,9.90
2022-11-27T07:46:52.277Z,9.90
2022-11-27T07:47:54.404Z,9.90
2022-11-27T07:48:58.152Z,9.90
2022-11-27T07:50:00.572Z,9.90
2022-11-27T07:51:07.726Z,9.80
2022-11-27T07:52:09.829Z,9.90
2022-11-27T07:53:13.097Z,9.90
2022-11-27T07:54:16.231Z,9.90
2022-11-27T07:55:18.410Z,9.90
2022-11-27T07:56:22.512Z,9.90
2022-11-27T07:57:24.628Z,9.80
2022-11-27T07:58:27.769Z,9.80
2022-11-27T07:59:31.316Z,9.80
2022-11-27T08:00:34.656Z,9.80
2022-11-27T08:01:36.823Z,9.80
2022-11-27T08:02:39.964Z,9.80
2022-11-27T08:03:44.159Z,9.70
2022-11-27T08:04:47.427Z,9.70
2022-11-27T08:05:49.540Z,9.70
2022-11-27T08:06:52.610Z,9.70
2022-11-27T08:07:55.448Z,9.60
2022-11-27T08:08:59.154Z,9.70
2022-11-27T08:10:01.599Z,9.70
2022-11-27T08:11:04.640Z,9.70
2022-11-27T08:12:08.323Z,9.70
2022-11-27T08:13:10.691Z,9.70
2022-11-27T08:14:16.226Z,9.70
2022-11-27T08:15:19.827Z,9.70
2022-11-27T08:16:23.152Z,9.80
2022-11-27T08:17:25.367Z,9.80
2022-11-27T08:18:28.573Z,9.80
2022-11-27T08:19:30.679Z,9.80
2022-11-27T08:20:33.898Z,9.90
2022-11-27T08:21:36.082Z,9.90
2022-11-27T08:22:39.138Z,10.00
2022-11-27T08:23:41.415Z,10.00
2022-11-27T08:24:44.529Z,10.10
2022-11-27T08:25:46.697Z,10.10
2022-11-27T08:26:50.032Z,10.20
2022-11-27T08:27:52.252Z,10.20
2022-11-27T08:28:56.200Z,10.30
2022-11-27T08:29:58.290Z,10.30
2022-11-27T08:31:04.633Z,10.40
2022-11-27T08:32:07.959Z,10.40
2022-11-27T08:33:10.603Z,10.40
2022-11-27T08:34:15.424Z,10.50
2022-11-27T08:35:17.913Z,10.50
2022-11-27T08:36:21.215Z,10.50
2022-11-27T08:37:23.374Z,10.60
2022-11-27T08:38:27.426Z,10.60
2022-11-27T08:39:30.549Z,10.60
2022-11-27T08:40:32.671Z,10.70
2022-11-27T08:41:35.760Z,10.70
2022-11-27T08:42:37.897Z,10.80
2022-11-27T08:43:41.043Z,10.80
2022-11-27T08:44:44.182Z,10.80
2022-11-27T08:45:46.456Z,10.80
2022-11-27T08:46:51.027Z,10.80
2022-11-27T08:47:53.115Z,10.90
2022-11-27T08:48:56.309Z,10.90
2022-11-27T08:49:58.455Z,10.90
2022-11-27T08:51:05.912Z,11.00
2022-11-27T08:52:08.067Z,11.00
2022-11-27T08:57:15.298Z,11.10
2022-11-27T08:58:17.629Z,11.10
2022-11-27T08:59:21.064Z,11.10
2022-11-27T09:00:27.746Z,11.10
2022-11-27T09:01:33.952Z,11.10
2022-11-27T09:02:37.476Z,11.10
2022-11-27T09:03:40.675Z,11.20
2022-11-27T09:04:43.968Z,11.20
2022-11-27T09:05:47.307Z,11.10
2022-11-27T09:07:01.461Z,11.20
2022-11-27T09:08:05.693Z,11.20
2022-11-27T09:09:12.486Z,11.20
2022-11-27T09:10:15.798Z,11.20
2022-11-27T09:11:20.248Z,11.20
2022-11-27T09:12:23.462Z,11.30
2022-11-27T09:13:31.033Z,11.30
2022-11-27T09:14:34.221Z,11.30
2022-11-27T09:15:36.453Z,11.30
2022-11-27T09:16:40.866Z,11.40
2022-11-27T09:17:50.603Z,11.40
2022-11-27T09:18:55.043Z,11.40
2022-11-27T09:19:57.241Z,11.50
2022-11-27T09:21:01.941Z,11.50
2022-11-27T09:22:04.177Z,11.60
2022-11-27T09:23:21.334Z,11.60
2022-11-27T09:24:24.945Z,11.70
2022-11-27T09:25:27.180Z,11.70
2022-11-27T09:26:31.636Z,11.80
2022-11-27T09:27:33.809Z,11.70
2022-11-27T09:28:38.324Z,11.70
2022-11-27T09:29:41.950Z,11.80
2022-11-27T09:30:44.203Z,11.70
2022-11-27T09:31:47.471Z,11.80
2022-11-27T09:32:52.526Z,11.80
2022-11-27T09:33:55.808Z,11.80
2022-11-27T09:34:58.141Z,11.70
2022-11-27T09:36:06.798Z,11.70
2022-11-27T09:37:09.288Z,11.80
2022-11-27T09:38:12.613Z,11.80
2022-11-27T09:39:16.986Z,11.80
2022-11-27T09:40:19.496Z,11.80
2022-11-27T09:41:42.989Z,11.90
2022-11-27T09:42:57.435Z,11.90
2022-11-27T09:44:06.587Z,11.90
2022-11-27T09:45:17.308Z,12.00
2022-11-27T09:46:29.047Z,12.00
2022-11-27T09:47:42.221Z,12.10
2022-11-27T09:48:52.038Z,12.20
2022-11-27T09:50:01.839Z,12.20
2022-11-27T09:51:24.385Z,12.30
2022-11-27T09:52:38.377Z,12.40
2022-11-27T09:53:49.999Z,12.50
2022-11-27T09:55:01.572Z,12.50
2022-11-27T09:56:10.520Z,12.60
2022-11-27T09:57:18.537Z,12.60
2022-11-27T09:58:31.086Z,12.60
2022-11-27T09:59:42.609Z,12.60
2022-11-27T10:00:46.863Z,12.70
2022-11-27T10:01:51.254Z,12.70
2022-11-27T10:02:55.217Z,12.80
2022-11-27T10:04:00.647Z,12.80
2022-11-27T10:05:14.620Z,12.80
2022-11-27T10:06:28.503Z,12.90
2022-11-27T10:07:49.139Z,12.90
2022-11-27T10:09:07.394Z,12.90
2022-11-27T10:10:30.829Z,13.00
2022-11-27T10:11:43.223Z,13.00
2022-11-27T10:13:01.475Z,13.10
2022-11-27T10:14:23.155Z,13.10
2022-11-27T10:15:38.533Z,13.20
2022-11-27T10:16:49.935Z,13.20
2022-11-27T10:18:03.698Z,13.20
2022-11-27T10:19:21.074Z,13.30
2022-11-27T10:20:33.216Z,13.30
2022-11-27T10:21:47.386Z,13.30
2022-11-27T10:23:00.036Z,13.30
2022-11-27T10:24:18.674Z,13.30
2022-11-27T10:25:27.533Z,13.20
2022-11-27T10:26:36.201Z,13.20
2022-11-27T10:27:56.092Z,13.20
2022-11-27T10:29:11.348Z,13.20
2022-11-27T10:30:17.075Z,13.20
2022-11-27T10:31:32.512Z,13.30
2022-11-27T10:34:05.448Z,13.40
2022-11-27T10:35:17.319Z,13.40
2022-11-27T10:36:31.934Z,13.40
2022-11-27T10:37:41.509Z,13.50
2022-11-27T10:38:46.384Z,13.50
2022-11-27T10:39:55.273Z,13.60
2022-11-27T10:41:18.662Z,13.70
2022-11-27T10:42:39.143Z,13.80
2022-11-27T10:43:41.523Z,13.90
2022-11-27T10:44:52.259Z,13.90
2022-11-27T10:46:00.209Z,13.90
2022-11-27T10:47:07.082Z,14.00
2022-11-27T10:48:09.592Z,14.00
2022-11-27T10:49:13.126Z,14.00
2022-11-27T10:50:19.362Z,14.00
2022-11-27T10:51:26.026Z,14.00
2022-11-27T10:52:29.206Z,13.90
2022-11-27T10:53:33.913Z,13.90
2022-11-27T10:54:40.275Z,13.90
2022-11-27T10:56:01.186Z,13.90
2022-11-27T10:57:25.548Z,13.90
2022-11-27T10:58:34.970Z,13.90
2022-11-27T10:59:47.686Z,13.80
2022-11-27T11:01:01.055Z,13.80
2022-11-27T11:02:05.668Z,13.80
2022-11-27T11:10:28.984Z,13.70
2022-11-27T11:11:35.997Z,13.60
2022-11-27T11:12:38.182Z,13.60
2022-11-27T11:13:48.846Z,13.70
2022-11-27T11:14:53.094Z,13.70
2022-11-27T11:16:00.038Z,13.70
2022-11-27T11:17:03.298Z,13.70
2022-11-27T11:18:18.185Z,13.80
2022-11-27T11:19:26.960Z,13.90
2022-11-27T11:20:29.232Z,13.90
2022-11-27T11:21:47.734Z,14.00
2022-11-27T11:27:46.326Z,14.10
2022-11-27T11:28:54.404Z,14.10
2022-11-27T11:30:02.630Z,14.20
2022-11-27T11:33:57.235Z,14.20
2022-11-27T11:35:04.683Z,14.30
2022-11-27T11:36:11.448Z,14.40
2022-11-27T11:37:24.203Z,14.30
2022-11-27T11:38:31.568Z,14.40
2022-11-27T11:39:44.464Z,14.30
2022-11-27T11:41:01.669Z,14.30
2022-11-27T11:42:12.086Z,14.30
2022-11-27T11:43:27.512Z,14.30
2022-11-27T11:44:54.449Z,14.30
2022-11-27T11:46:07.259Z,14.30
2022-11-27T11:47:20.154Z,14.30
2022-11-27T11:48:27.183Z,14.30
2022-11-27T11:49:34.344Z,14.30
2022-11-27T11:50:45.693Z,14.40
2022-11-27T11:52:11.262Z,14.40
2022-11-27T11:53:25.643Z,14.50
2022-11-27T11:54:49.600Z,14.60
2022-11-27T11:56:06.952Z,14.60
2022-11-27T11:57:29.116Z,14.60
2022-11-27T11:58:51.483Z,14.70
2022-11-27T12:00:03.169Z,14.70
2022-11-27T12:01:27.722Z,14.70
2022-11-27T12:02:46.667Z,14.60
2022-11-27T12:04:08.190Z,14.60
2022-11-27T12:05:28.109Z,14.60
2022-11-27T12:06:48.212Z,14.60
2022-11-27T12:08:06.909Z,14.60
2022-11-27T12:09:31.626Z,14.70
2022-11-27T12:10:55.515Z,14.70
2022-11-27T12:12:11.702Z,14.70
2022-11-27T12:13:31.649Z,14.80
2022-11-27T12:14:46.223Z,14.70
2022-11-27T12:16:04.595Z,14.60
2022-11-27T12:17:24.431Z,14.60
2022-11-27T12:18:46.602Z,14.60
2022-11-27T12:20:14.615Z,14.60
2022-11-27T12:21:23.754Z,14.60
2022-11-27T12:22:49.026Z,14.60
2022-11-27T12:24:08.469Z,14.40
2022-11-27T12:25:29.612Z,14.30
2022-11-27T12:26:52.648Z,14.20
2022-11-27T12:28:13.328Z,14.10
2022-11-27T12:29:54.601Z,14.00
2022-11-27T12:31:07.449Z,14.00
2022-11-27T12:32:29.408Z,14.10
2022-11-27T12:33:48.808Z,14.10
2022-11-27T12:35:17.240Z,14.20
2022-11-27T12:36:31.416Z,14.20
2022-11-27T12:37:52.312Z,14.30
2022-11-27T12:39:15.530Z,14.30
2022-11-27T12:40:33.646Z,14.30
2022-11-27T12:42:02.508Z,14.40
2022-11-27T12:43:17.256Z,14.50
2022-11-27T12:44:29.562Z,14.50
2022-11-27T12:45:38.958Z,14.50
2022-11-27T12:46:54.202Z,14.60
2022-11-27T12:48:04.124Z,14.60
2022-11-27T12:49:16.609Z,14.60
2022-11-27T12:50:27.371Z,14.70
2022-11-27T12:51:38.363Z,14.70
2022-11-27T12:52:47.054Z,14.70
2022-11-27T12:53:56.892Z,14.70
2022-11-27T12:55:06.907Z,14.70
2022-11-27T12:56:20.963Z,14.70
2022-11-27T12:57:41.371Z,14.70
2022-11-27T12:58:48.516Z,14.60
2022-11-27T12:59:58.548Z,14.60
2022-11-27T13:01:10.166Z,14.60
2022-11-27T13:02:29.262Z,14.60
2022-11-27T13:03:40.249Z,14.50
2022-11-27T13:04:49.036Z,14.50
2022-11-27T13:05:58.102Z,14.50
2022-11-27T13:07:07.434Z,14.50
2022-11-27T13:08:19.542Z,14.50
2022-11-27T13:09:43.898Z,14.50
2022-11-27T13:10:54.722Z,14.50
2022-11-27T13:12:00.399Z,14.50
2022-11-27T13:13:09.602Z,14.50
2022-11-27T13:14:19.689Z,14.40
2022-11-27T13:15:28.040Z,14.40
2022-11-27T13:16:38.285Z,14.40
2022-11-27T13:17:44.089Z,14.50
2022-11-27T13:18:55.801Z,14.50
2022-11-27T13:19:58.515Z,14.50
2022-11-27T13:21:05.983Z,14.50
2022-11-27T13:22:14.353Z,14.50
2022-11-27T13:23:17.583Z,14.50
2022-11-27T13:24:22.178Z,14.50
2022-11-27T13:25:28.072Z,14.50
2022-11-27T13:26:35.524Z,14.50
2022-11-27T13:27:40.489Z,14.40
2022-11-27T13:28:48.348Z,14.30
2022-11-27T13:29:56.913Z,14.30
2022-11-27T13:31:02.620Z,14.30
2022-11-27T13:32:10.943Z,14.30
2022-11-27T13:33:33.920Z,14.30
2022-11-27T13:34:47.339Z,14.30
2022-11-27T13:35:49.888Z,14.30
2022-11-27T13:36:59.670Z,14.40
2022-11-27T13:38:10.792Z,14.40
2022-11-27T13:39:25.225Z,14.40
2022-11-27T13:40:33.019Z,14.40
2022-11-27T13:41:40.012Z,14.30
2022-11-27T13:42:47.141Z,14.30
2022-11-27T13:43:50.485Z,14.20
2022-11-27T13:44:57.477Z,14.10
2022-11-27T13:46:07.131Z,13.90
2022-11-27T13:47:15.617Z,13.80
2022-11-27T13:48:34.025Z,13.70
2022-11-27T13:49:37.957Z,13.70
2022-11-27T13:50:46.519Z,13.60
2022-11-27T13:51:48.775Z,13.60
2022-11-27T13:52:57.317Z,13.60
2022-11-27T13:54:11.888Z,13.50
2022-11-27T13:55:24.193Z,13.50
2022-11-27T13:56:31.625Z,13.40
2022-11-27T13:57:34.703Z,13.50
2022-11-27T13:58:39.859Z,13.50
2022-11-27T13:59:42.125Z,13.40
2022-11-27T14:00:46.713Z,13.40
2022-11-27T14:01:59.110Z,13.50
2022-11-27T14:03:04.118Z,13.50
2022-11-27T14:04:09.972Z,13.50
2022-11-27T14:05:15.439Z,13.60
2022-11-27T14:06:31.501Z,13.60
2022-11-27T14:07:41.295Z,13.60
2022-11-27T14:08:53.942Z,13.60
2022-11-27T14:10:30.675Z,13.60
2022-11-27T14:13:40.601Z,13.70
2022-11-27T14:14:49.337Z,13.70
2022-11-27T14:19:32.086Z,13.70
2022-11-27T14:20:49.236Z,13.70
2022-11-27T14:21:56.232Z,13.60
2022-11-27T14:23:12.695Z,13.60
2022-11-27T14:29:28.596Z,13.40
2022-11-27T14:31:32.367Z,13.40
2022-11-27T14:35:21.422Z,13.30
2022-11-27T14:36:28.183Z,13.30
2022-11-27T14:37:31.348Z,13.20
2022-11-27T14:46:57.547Z,13.00
2022-11-27T14:48:35.130Z,12.90
2022-11-27T14:49:44.200Z,12.80
2022-11-27T14:50:49.926Z,12.80
2022-11-27T14:52:17.111Z,12.70
2022-11-27T14:53:41.756Z,12.60
2022-11-27T14:55:20.994Z,12.60
2022-11-27T14:56:27.573Z,12.60
2022-11-27T14:57:50.443Z,12.70
2022-11-27T14:59:46.929Z,12.70
2022-11-27T15:01:15.941Z,12.80
2022-11-27T15:02:32.342Z,12.80
2022-11-27T15:05:40.229Z,12.90
2022-11-27T15:07:45.311Z,12.90
2022-11-27T15:09:16.010Z,13.00
2022-11-27T15:10:39.218Z,13.10
2022-11-27T15:11:59.079Z,13.00
2022-11-27T15:13:05.607Z,13.10
2022-11-27T15:16:25.969Z,13.20
2022-11-27T15:17:35.582Z,13.20